createdAt,value
2018-02-24T00:00:51.896Z,18.10
2018-02-24T00:01:54.403Z,20.37
2018-02-24T00:02:56.905Z,14.93
2018-02-24T00:03:59.466Z,16.05
2018-02-24T00:05:02.739Z,18.45
2018-02-24T00:06:06.031Z,16.65
2018-02-24T00:07:09.293Z,16.50
2018-02-24T00:08:11.798Z,20.33
2018-02-24T00:09:14.295Z,18.83
2018-02-24T00:10:16.797Z,18.00
2018-02-24T00:11:19.314Z,17.42
2018-02-24T00:12:21.854Z,16.98
2018-02-24T00:13:24.356Z,18.37
2018-02-24T00:14:26.859Z,18.23
2018-02-24T00:15:30.134Z,17.58
2018-02-24T00:16:32.695Z,18.00
2018-02-24T00:17:35.194Z,15.85
2018-02-24T00:18:37.698Z,19.15
2018-02-24T00:19:40.198Z,18.75
2018-02-24T00:20:42.737Z,18.77
2018-02-24T00:21:45.242Z,17.90
2018-02-24T00:22:48.514Z,17.77
2018-02-24T00:23:51.780Z,22.27
2018-02-24T00:24:55.782Z,18.50
2018-02-24T00:25:58.282Z,17.73
2018-02-24T00:27:00.804Z,20.08
2018-02-24T00:28:03.297Z,18.33
2018-02-24T00:29:06.578Z,16.58
2018-02-24T00:30:09.843Z,21.02
2018-02-24T00:31:12.337Z,18.27
2018-02-24T00:32:15.630Z,17.77
2018-02-24T00:33:18.134Z,20.23
2018-02-24T00:34:20.629Z,18.80
2018-02-24T00:35:23.134Z,20.05
2018-02-24T00:36:25.641Z,20.35
2018-02-24T00:37:28.258Z,17.83
2018-02-24T00:38:31.651Z,19.55
2018-02-24T00:39:34.153Z,18.20
2018-02-24T00:40:36.652Z,21.37
2018-02-24T00:41:39.148Z,22.02
2018-02-24T00:42:41.671Z,21.77
2018-02-24T00:43:44.181Z,22.67
2018-02-24T00:44:46.682Z,20.48
2018-02-24T00:45:49.178Z,19.50
2018-02-24T00:46:51.671Z,21.70
2018-02-24T00:47:54.185Z,18.65
2018-02-24T00:48:56.686Z,20.27
2018-02-24T00:49:59.958Z,16.90
2018-02-24T00:51:03.218Z,22.50
2018-02-24T00:52:05.715Z,17.45
2018-02-24T00:53:09.007Z,21.80
2018-02-24T00:54:11.512Z,18.12
2018-02-24T00:55:14.026Z,22.13
2018-02-24T00:56:17.298Z,20.35
2018-02-24T00:57:19.803Z,22.58
2018-02-24T00:58:22.323Z,20.77
2018-02-24T00:59:24.830Z,24.33
2018-02-24T01:00:27.341Z,24.23
2018-02-24T01:01:29.850Z,19.17
2018-02-24T01:02:32.343Z,22.23
2018-02-24T01:03:34.907Z,22.75
2018-02-24T01:04:37.406Z,19.05
2018-02-24T01:05:39.919Z,19.90
2018-02-24T01:06:42.419Z,20.45
2018-02-24T01:07:44.922Z,24.12
2018-02-24T01:08:48.214Z,17.83
2018-02-24T01:09:51.482Z,23.25
2018-02-24T01:10:53.994Z,19.48
2018-02-24T01:11:56.720Z,24.27
2018-02-24T01:12:59.262Z,19.48
2018-02-24T01:14:01.878Z,22.40
2018-02-24T01:15:04.370Z,22.37
2018-02-24T01:16:06.865Z,21.30
2018-02-24T01:17:09.358Z,23.05
2018-02-24T01:18:12.626Z,23.42
2018-02-24T01:19:15.242Z,24.37
2018-02-24T01:20:17.739Z,20.88
2018-02-24T01:21:20.246Z,23.67
2018-02-24T01:22:23.738Z,24.60
2018-02-24T01:23:26.240Z,21.77
2018-02-24T01:24:28.761Z,23.23
2018-02-24T01:25:32.058Z,24.42
2018-02-24T01:26:34.561Z,19.67
2018-02-24T01:27:37.074Z,24.67
2018-02-24T01:28:39.607Z,20.40
2018-02-24T01:29:42.119Z,22.02
2018-02-24T01:30:44.616Z,22.75
2018-02-24T01:31:47.120Z,23.62
2018-02-24T01:32:49.619Z,20.45
2018-02-24T01:33:52.134Z,22.80
2018-02-24T01:34:54.659Z,20.95
2018-02-24T01:35:57.150Z,21.50
2018-02-24T01:36:59.662Z,21.77
2018-02-24T01:38:02.922Z,26.37
2018-02-24T01:39:05.438Z,23.90
2018-02-24T01:40:07.970Z,30.30
2018-02-24T01:41:11.234Z,27.95
2018-02-24T01:42:13.836Z,24.65
2018-02-24T01:43:16.340Z,27.62
2018-02-24T01:44:18.843Z,24.90
2018-02-24T01:45:21.357Z,23.52
2018-02-24T01:46:23.851Z,26.55
2018-02-24T01:47:26.342Z,25.10
2018-02-24T01:48:28.834Z,24.85
2018-02-24T01:49:31.326Z,29.52
2018-02-24T01:50:42.749Z,22.33
2018-02-24T01:51:46.016Z,23.33
2018-02-24T01:52:48.510Z,25.58
2018-02-24T01:53:51.765Z,22.50
2018-02-24T01:54:54.270Z,23.00
2018-02-24T01:55:56.789Z,22.42
2018-02-24T01:56:59.287Z,20.25
2018-02-24T01:58:02.566Z,26.05
2018-02-24T01:59:05.834Z,24.12
2018-02-24T02:00:08.346Z,21.73
2018-02-24T02:01:10.866Z,22.62
2018-02-24T02:02:13.378Z,22.77
2018-02-24T02:03:15.875Z,22.33
2018-02-24T02:04:18.370Z,21.02
2018-02-24T02:05:21.637Z,21.37
2018-02-24T02:06:24.155Z,21.73
2018-02-24T02:07:26.654Z,19.40
2018-02-24T02:08:29.162Z,20.48
2018-02-24T02:09:32.446Z,21.98
2018-02-24T02:10:35.710Z,19.27
2018-02-24T02:11:38.297Z,20.77
2018-02-24T02:12:40.806Z,23.67
2018-02-24T02:13:43.298Z,22.70
2018-02-24T02:14:45.794Z,21.90
2018-02-24T02:15:48.297Z,24.17
2018-02-24T02:16:50.814Z,21.15
2018-02-24T02:17:54.083Z,22.60
2018-02-24T02:18:56.578Z,23.87
2018-02-24T02:19:59.088Z,23.48
2018-02-24T02:21:01.593Z,25.62
2018-02-24T02:22:04.886Z,23.60
2018-02-24T02:23:07.385Z,24.12
2018-02-24T02:24:09.886Z,19.77
2018-02-24T02:25:12.406Z,21.65
2018-02-24T02:26:14.906Z,23.48
2018-02-24T02:27:17.437Z,21.92
2018-02-24T02:28:19.930Z,24.73
2018-02-24T02:29:22.430Z,23.45
2018-02-24T02:30:25.690Z,20.50
2018-02-24T02:31:28.191Z,22.23
2018-02-24T02:32:30.750Z,21.58
2018-02-24T02:33:34.015Z,21.10
2018-02-24T02:34:36.506Z,23.92
2018-02-24T02:35:39.005Z,19.52
2018-02-24T02:36:41.511Z,25.02
2018-02-24T02:37:44.038Z,21.15
2018-02-24T02:38:47.157Z,24.80
2018-02-24T02:39:52.013Z,22.58
2018-02-24T02:40:54.874Z,20.85
2018-02-24T02:41:57.958Z,25.37
2018-02-24T02:43:00.541Z,22.00
2018-02-24T02:44:03.049Z,18.87
2018-02-24T02:45:05.828Z,22.05
2018-02-24T02:46:09.973Z,20.90
2018-02-24T02:47:13.091Z,24.12
2018-02-24T02:48:15.625Z,21.05
2018-02-24T02:49:18.127Z,23.70
2018-02-24T02:50:20.626Z,20.58
2018-02-24T02:51:23.894Z,20.92
2018-02-24T02:52:26.482Z,22.25
2018-02-24T02:53:29.782Z,17.65
2018-02-24T02:54:32.282Z,21.90
2018-02-24T02:55:34.792Z,19.30
2018-02-24T02:56:38.062Z,22.33
2018-02-24T02:57:41.335Z,19.20
2018-02-24T02:58:43.878Z,19.52
2018-02-24T02:59:46.375Z,18.75
2018-02-24T03:00:49.688Z,25.05
2018-02-24T03:01:52.185Z,20.85
2018-02-24T03:02:54.686Z,20.92
2018-02-24T03:03:57.207Z,21.50
2018-02-24T03:04:59.706Z,23.65
2018-02-24T03:06:02.227Z,22.45
2018-02-24T03:07:04.730Z,26.62
2018-02-24T03:08:07.229Z,21.65
2018-02-24T03:09:10.516Z,20.85
2018-02-24T03:10:13.782Z,19.80
2018-02-24T03:11:17.051Z,23.20
2018-02-24T03:12:19.554Z,20.70
2018-02-24T03:13:22.054Z,21.23
2018-02-24T03:14:24.589Z,20.83
2018-02-24T03:15:27.098Z,22.65
2018-02-24T03:16:29.616Z,22.35
2018-02-24T03:17:32.140Z,22.17
2018-02-24T03:18:34.650Z,20.00
2018-02-24T03:19:37.169Z,21.20
2018-02-24T03:20:39.671Z,23.20
2018-02-24T03:21:42.927Z,20.05
2018-02-24T03:22:45.426Z,20.67
2018-02-24T03:23:47.934Z,20.52
2018-02-24T03:24:50.452Z,22.70
2018-02-24T03:25:52.950Z,19.73
2018-02-24T03:26:55.454Z,19.75
2018-02-24T03:27:58.047Z,20.92
2018-02-24T03:29:01.314Z,21.30
2018-02-24T03:30:04.619Z,18.45
2018-02-24T03:31:07.134Z,23.62
2018-02-24T03:32:09.643Z,22.27
2018-02-24T03:33:12.907Z,21.15
2018-02-24T03:34:16.167Z,20.92
2018-02-24T03:35:18.685Z,26.05
2018-02-24T03:36:21.182Z,22.15
2018-02-24T03:37:23.686Z,23.17
2018-02-24T03:38:26.191Z,21.73
2018-02-24T03:39:28.694Z,24.95
2018-02-24T03:40:31.215Z,23.38
2018-02-24T03:41:33.738Z,21.80
2018-02-24T03:42:36.281Z,20.12
2018-02-24T03:43:38.769Z,21.42
2018-02-24T03:44:41.278Z,20.62
2018-02-24T03:45:58.693Z,24.80
2018-02-24T03:47:01.190Z,20.83
2018-02-24T03:48:03.684Z,23.95
2018-02-24T03:49:06.178Z,23.92
2018-02-24T03:50:08.673Z,21.37
2018-02-24T03:51:11.202Z,20.83
2018-02-24T03:52:14.465Z,20.83
2018-02-24T03:53:17.727Z,23.42
2018-02-24T03:54:20.255Z,20.58
2018-02-24T03:55:22.752Z,19.70
2018-02-24T03:56:25.276Z,22.77
2018-02-24T03:57:27.799Z,19.85
2018-02-24T03:58:30.301Z,22.35
2018-02-24T03:59:32.812Z,20.83
2018-02-24T04:00:35.308Z,21.12
2018-02-24T04:01:37.834Z,20.75
2018-02-24T04:02:40.333Z,19.87
2018-02-24T04:03:42.846Z,21.83
2018-02-24T04:04:45.353Z,18.75
2018-02-24T04:05:47.854Z,19.10
2018-02-24T04:06:51.135Z,21.83
2018-02-24T04:07:54.407Z,22.05
2018-02-24T04:08:57.673Z,20.08
2018-02-24T04:10:00.197Z,22.08
2018-02-24T04:11:02.709Z,23.00
2018-02-24T04:12:05.264Z,22.02
2018-02-24T04:13:07.790Z,21.55
2018-02-24T04:14:10.304Z,20.33
2018-02-24T04:15:12.827Z,21.20
2018-02-24T04:16:15.360Z,20.85
2018-02-24T04:17:18.654Z,19.70
2018-02-24T04:18:21.150Z,25.85
2018-02-24T04:19:23.658Z,19.40
2018-02-24T04:20:26.182Z,23.05
2018-02-24T04:21:28.682Z,19.40
2018-02-24T04:22:31.221Z,20.20
2018-02-24T04:23:33.734Z,22.62
2018-02-24T04:24:37.007Z,19.12
2018-02-24T04:25:39.506Z,21.85
2018-02-24T04:26:42.008Z,21.10
2018-02-24T04:27:44.539Z,23.00
2018-02-24T04:28:47.039Z,20.55
2018-02-24T04:29:49.550Z,22.92
2018-02-24T04:30:52.069Z,19.00
2018-02-24T04:31:54.582Z,22.35
2018-02-24T04:32:57.131Z,21.23
2018-02-24T04:34:00.394Z,22.05
2018-02-24T04:35:03.463Z,18.08
2018-02-24T04:36:05.958Z,21.23
2018-02-24T04:37:09.250Z,22.92
2018-02-24T04:38:12.542Z,19.73
2018-02-24T04:39:15.039Z,20.48
2018-02-24T04:40:17.530Z,18.95
2018-02-24T04:41:20.057Z,24.70
2018-02-24T04:42:22.567Z,23.65
2018-02-24T04:43:25.166Z,18.12
2018-02-24T04:44:28.430Z,19.50
2018-02-24T04:45:30.930Z,18.08
2018-02-24T04:46:33.437Z,21.80
2018-02-24T04:47:35.938Z,17.67
2018-02-24T04:48:39.345Z,18.20
2018-02-24T04:49:41.856Z,20.60
2018-02-24T04:50:44.362Z,20.25
2018-02-24T04:51:47.628Z,21.45
2018-02-24T04:52:50.891Z,19.85
2018-02-24T04:53:53.408Z,24.15
2018-02-24T04:54:55.902Z,19.08
2018-02-24T04:55:58.402Z,19.00
2018-02-24T04:57:00.894Z,18.37
2018-02-24T04:58:03.394Z,20.02
2018-02-24T04:59:05.927Z,19.55
2018-02-24T05:00:08.428Z,20.37
2018-02-24T05:01:10.930Z,19.12
2018-02-24T05:02:13.514Z,19.55
2018-02-24T05:03:16.781Z,20.75
2018-02-24T05:04:20.066Z,17.67
2018-02-24T05:05:23.327Z,19.40
2018-02-24T05:06:25.817Z,17.90
2018-02-24T05:07:28.399Z,21.70
2018-02-24T05:08:30.960Z,23.65
2018-02-24T05:09:33.492Z,19.30
2018-02-24T05:10:35.994Z,20.48
2018-02-24T05:11:39.258Z,19.50
2018-02-24T05:12:41.774Z,17.40
2018-02-24T05:13:44.278Z,19.20
2018-02-24T05:14:46.790Z,18.73
2018-02-24T05:15:49.302Z,18.45
2018-02-24T05:16:51.802Z,18.85
2018-02-24T05:17:55.068Z,22.33
2018-02-24T05:18:57.570Z,17.80
2018-02-24T05:20:00.090Z,17.15
2018-02-24T05:21:02.595Z,20.65
2018-02-24T05:22:05.100Z,21.42
2018-02-24T05:23:07.607Z,20.40
2018-02-24T05:24:10.884Z,18.90
2018-02-24T05:25:14.330Z,20.73
2018-02-24T05:26:16.831Z,20.55
2018-02-24T05:27:20.110Z,19.77
2018-02-24T05:28:22.622Z,21.73
2018-02-24T05:29:25.146Z,19.23
2018-02-24T05:30:28.442Z,20.85
2018-02-24T05:31:31.713Z,19.95
2018-02-24T05:32:34.978Z,20.73
2018-02-24T05:33:37.500Z,19.20
2018-02-24T05:34:40.014Z,20.60
2018-02-24T05:35:42.539Z,23.50
2018-02-24T05:36:45.035Z,20.15
2018-02-24T05:37:47.571Z,21.58
2018-02-24T05:38:50.110Z,18.48
2018-02-24T05:39:54.395Z,18.23
2018-02-24T05:40:56.930Z,17.83
2018-02-24T05:41:59.445Z,20.48
2018-02-24T05:43:01.944Z,19.30
2018-02-24T05:44:04.454Z,20.15
2018-02-24T05:45:07.761Z,17.83
2018-02-24T05:46:11.066Z,18.23
2018-02-24T05:47:13.561Z,18.33
2018-02-24T05:48:16.063Z,17.42
2018-02-24T05:49:19.339Z,18.27
2018-02-24T05:50:22.601Z,18.73
2018-02-24T05:51:25.128Z,21.42
2018-02-24T05:52:27.663Z,19.55
2018-02-24T05:53:30.199Z,16.60
2018-02-24T05:54:32.705Z,19.35
2018-02-24T05:55:35.204Z,21.37
2018-02-24T05:56:37.747Z,18.65
2018-02-24T05:57:40.246Z,17.98
2018-02-24T05:58:42.744Z,20.02
2018-02-24T05:59:45.254Z,19.30
2018-02-24T06:00:47.780Z,17.35
2018-02-24T06:01:51.062Z,21.83
2018-02-24T06:02:54.345Z,19.73
2018-02-24T06:03:57.625Z,21.67
2018-02-24T06:05:00.911Z,17.37
2018-02-24T06:06:04.195Z,19.52
2018-02-24T06:07:07.493Z,19.10
2018-02-24T06:08:10.766Z,16.92
2018-02-24T06:09:14.043Z,21.08
2018-02-24T06:10:16.560Z,17.40
2018-02-24T06:11:19.067Z,15.88
2018-02-24T06:12:21.766Z,17.70
2018-02-24T06:13:24.286Z,18.80
2018-02-24T06:14:26.790Z,17.90
2018-02-24T06:15:30.066Z,17.58
2018-02-24T06:16:33.329Z,16.60
2018-02-24T06:17:35.859Z,20.65
2018-02-24T06:18:38.371Z,18.55
2018-02-24T06:19:40.864Z,17.77
2018-02-24T06:20:43.369Z,16.83
2018-02-24T06:21:45.862Z,16.40
2018-02-24T06:22:49.913Z,15.45
2018-02-24T06:23:52.410Z,16.98
2018-02-24T06:24:54.923Z,16.35
2018-02-24T06:25:57.425Z,20.30
2018-02-24T06:26:59.918Z,18.92
2018-02-24T06:28:02.450Z,19.25
2018-02-24T06:29:04.974Z,17.42
2018-02-24T06:30:08.248Z,17.92
2018-02-24T06:31:11.511Z,21.00
2018-02-24T06:32:14.006Z,17.23
2018-02-24T06:33:17.290Z,18.48
2018-02-24T06:34:20.550Z,18.48
2018-02-24T06:35:23.145Z,20.92
2018-02-24T06:36:25.765Z,17.58
2018-02-24T06:37:28.283Z,20.35
2018-02-24T06:38:30.860Z,18.10
2018-02-24T06:39:33.384Z,18.75
2018-02-24T06:40:35.897Z,20.73
2018-02-24T06:41:38.411Z,17.87
2018-02-24T06:42:40.914Z,19.17
2018-02-24T06:43:43.434Z,19.65
2018-02-24T06:44:45.942Z,15.80
2018-02-24T06:45:48.451Z,20.80
2018-02-24T06:46:50.990Z,20.05
2018-02-24T06:47:53.511Z,19.52
2018-02-24T06:48:56.816Z,19.75
2018-02-24T06:49:59.326Z,18.40
2018-02-24T06:51:01.852Z,20.55
2018-02-24T06:52:04.357Z,18.95
2018-02-24T06:53:06.853Z,18.08
2018-02-24T06:54:09.430Z,18.85
2018-02-24T06:55:12.698Z,19.15
2018-02-24T06:56:15.203Z,16.95
2018-02-24T06:57:17.749Z,19.70
2018-02-24T06:58:21.030Z,19.10
2018-02-24T06:59:24.328Z,23.00
2018-02-24T07:00:26.834Z,20.27
2018-02-24T07:01:29.351Z,18.92
2018-02-24T07:02:31.862Z,19.95
2018-02-24T07:03:34.360Z,18.85
2018-02-24T07:04:36.889Z,18.05
2018-02-24T07:05:39.391Z,20.10
2018-02-24T07:06:42.687Z,20.33
2018-02-24T07:07:45.953Z,20.75
2018-02-24T07:08:48.462Z,21.90
2018-02-24T07:09:51.004Z,22.17
2018-02-24T07:10:54.259Z,16.33
2018-02-24T07:11:56.759Z,24.02
2018-02-24T07:13:00.031Z,22.90
2018-02-24T07:14:03.304Z,20.37
2018-02-24T07:15:06.634Z,17.92
2018-02-24T07:16:09.138Z,17.67
2018-02-24T07:17:11.643Z,15.85
2018-02-24T07:18:14.930Z,19.25
2018-02-24T07:19:17.450Z,22.17
2018-02-24T07:20:19.982Z,19.62
2018-02-24T07:21:22.488Z,22.08
2018-02-24T07:22:25.000Z,18.62
2018-02-24T07:23:27.505Z,19.87
2018-02-24T07:24:30.006Z,18.37
2018-02-24T07:25:33.442Z,20.15
2018-02-24T07:26:35.937Z,21.23
2018-02-24T07:27:38.444Z,17.60
2018-02-24T07:28:40.949Z,18.48
2018-02-24T07:29:43.463Z,20.58
2018-02-24T07:30:46.751Z,17.87
2018-02-24T07:31:49.266Z,18.80
2018-02-24T07:32:51.774Z,18.90
2018-02-24T07:33:55.049Z,19.00
2018-02-24T07:34:58.348Z,23.67
2018-02-24T07:36:01.631Z,18.67
2018-02-24T07:37:04.144Z,22.52
2018-02-24T07:38:06.642Z,18.80
2018-02-24T07:39:09.151Z,18.50
2018-02-24T07:40:11.708Z,20.67
2018-02-24T07:41:14.225Z,20.40
2018-02-24T07:42:16.758Z,18.90
2018-02-24T07:43:19.258Z,18.62
2018-02-24T07:44:21.750Z,15.55
2018-02-24T07:45:25.023Z,17.10
2018-02-24T07:46:28.314Z,18.58
2018-02-24T07:47:31.578Z,17.23
2018-02-24T07:48:34.103Z,15.63
2018-02-24T07:49:36.608Z,14.68
2018-02-24T07:50:39.136Z,14.02
2018-02-24T07:51:41.681Z,13.18
2018-02-24T07:52:44.187Z,16.62
2018-02-24T07:53:46.679Z,18.52
2018-02-24T07:54:49.960Z,16.25
2018-02-24T07:55:53.242Z,13.02
2018-02-24T07:56:56.548Z,16.98
2018-02-24T07:57:59.066Z,15.50
2018-02-24T07:59:01.561Z,15.45
2018-02-24T08:00:04.880Z,14.18
2018-02-24T08:01:07.378Z,17.55
2018-02-24T08:02:09.904Z,16.58
2018-02-24T08:03:12.410Z,13.73
2018-02-24T08:04:14.907Z,14.77
2018-02-24T08:05:18.187Z,14.87
2018-02-24T08:06:20.683Z,13.57
2018-02-24T08:07:23.202Z,14.05
2018-02-24T08:08:25.695Z,12.35
2018-02-24T08:09:28.962Z,17.40
2018-02-24T08:10:31.471Z,18.23
2018-02-24T08:11:33.983Z,18.02
2018-02-24T08:12:36.586Z,13.95
2018-02-24T08:13:39.090Z,19.65
2018-02-24T08:14:41.601Z,18.10
2018-02-24T08:15:44.878Z,17.90
2018-02-24T08:16:48.138Z,17.42
2018-02-24T08:17:50.765Z,13.52
2018-02-24T08:18:53.266Z,17.15
2018-02-24T08:19:55.771Z,16.58
2018-02-24T08:20:59.043Z,18.67
2018-02-24T08:22:02.322Z,15.48
2018-02-24T08:23:05.606Z,16.35
2018-02-24T08:24:08.124Z,17.83
2018-02-24T08:25:10.618Z,16.95
2018-02-24T08:26:13.127Z,19.95
2018-02-24T08:27:15.627Z,16.52
2018-02-24T08:28:18.155Z,15.88
2018-02-24T08:29:20.723Z,16.05
2018-02-24T08:30:23.230Z,16.10
2018-02-24T08:31:25.783Z,14.73
2018-02-24T08:32:29.378Z,15.40
2018-02-24T08:33:31.919Z,15.65
2018-02-24T08:34:34.448Z,13.48
2018-02-24T08:35:37.726Z,15.80
2018-02-24T08:36:40.235Z,28.40
2018-02-24T08:37:42.906Z,16.67
2018-02-24T08:38:45.466Z,13.02
2018-02-24T08:39:47.977Z,16.80
2018-02-24T08:40:50.502Z,12.23
2018-02-24T08:41:53.010Z,14.25
2018-02-24T08:42:55.555Z,14.25
2018-02-24T08:43:58.086Z,15.63
2018-02-24T08:45:01.366Z,12.95
2018-02-24T08:46:04.642Z,14.25
2018-02-24T08:47:07.936Z,14.63
2018-02-24T08:48:11.203Z,12.65
2018-02-24T08:49:14.494Z,15.18
2018-02-24T08:50:17.788Z,15.43
2018-02-24T08:51:20.365Z,12.43
2018-02-24T08:52:22.866Z,11.35
2018-02-24T08:53:27.161Z,12.05
2018-02-24T08:54:29.682Z,14.15
2018-02-24T08:55:32.965Z,10.75
2018-02-24T08:56:36.246Z,12.85
2018-02-24T08:57:39.549Z,14.32
2018-02-24T08:58:42.060Z,13.43
2018-02-24T08:59:44.584Z,12.75
2018-02-24T09:00:47.099Z,16.33
2018-02-24T09:01:49.616Z,13.65
2018-02-24T09:02:52.128Z,13.50
2018-02-24T09:03:54.629Z,15.50
2018-02-24T09:04:57.929Z,12.60
2018-02-24T09:06:00.483Z,12.37
2018-02-24T09:07:03.031Z,13.05
2018-02-24T09:08:05.543Z,16.37
2018-02-24T09:09:08.038Z,11.70
2018-02-24T09:10:10.564Z,14.15
2018-02-24T09:11:13.069Z,12.48
2018-02-24T09:12:16.748Z,13.90
2018-02-24T09:13:19.256Z,10.70
2018-02-24T09:14:21.782Z,12.18
2018-02-24T09:15:24.336Z,11.40
2018-02-24T09:16:26.912Z,12.32
2018-02-24T09:17:29.432Z,11.77
2018-02-24T09:18:31.938Z,12.65
2018-02-24T09:19:34.791Z,13.98
2018-02-24T09:20:37.406Z,12.50
2018-02-24T09:21:39.925Z,14.07
2018-02-24T09:22:42.426Z,12.93
2018-02-24T09:23:45.950Z,14.23
2018-02-24T09:24:49.234Z,11.98
2018-02-24T09:25:52.569Z,13.15
2018-02-24T09:26:55.085Z,11.50
2018-02-24T09:27:58.350Z,13.45
2018-02-24T09:29:00.888Z,11.52
2018-02-24T09:30:03.408Z,12.60
2018-02-24T09:31:05.951Z,14.25
2018-02-24T09:32:08.485Z,10.75
2018-02-24T09:33:10.987Z,12.88
2018-02-24T09:34:14.278Z,10.80
2018-02-24T09:35:17.596Z,12.48
2018-02-24T09:36:20.122Z,13.00
2018-02-24T09:37:23.409Z,12.60
2018-02-24T09:38:26.687Z,14.13
2018-02-24T09:39:29.231Z,11.80
2018-02-24T09:40:31.753Z,13.02
2018-02-24T09:41:34.290Z,15.38
2018-02-24T09:42:37.548Z,14.18
2018-02-24T09:43:40.055Z,10.88
2018-02-24T09:44:42.554Z,12.60
2018-02-24T09:45:45.142Z,14.35
2018-02-24T09:46:47.693Z,11.98
2018-02-24T09:47:50.197Z,10.80
2018-02-24T09:48:53.466Z,11.00
2018-02-24T09:49:55.965Z,13.07
2018-02-24T09:50:58.464Z,11.07
2018-02-24T09:52:01.054Z,12.27
2018-02-24T09:53:03.571Z,10.18
2018-02-24T09:54:06.836Z,10.50
2018-02-24T09:55:10.103Z,12.43
2018-02-24T09:56:12.624Z,13.40
2018-02-24T09:57:15.189Z,12.25
2018-02-24T09:58:17.690Z,12.30
2018-02-24T09:59:20.201Z,10.65
2018-02-24T10:00:22.730Z,11.52
2018-02-24T10:01:26.971Z,11.30
2018-02-24T10:02:29.640Z,10.32
2018-02-24T10:03:32.186Z,12.18
2018-02-24T10:04:35.464Z,13.62
2018-02-24T10:05:38.754Z,11.35
2018-02-24T10:06:42.043Z,11.85
2018-02-24T10:07:45.372Z,12.40
2018-02-24T10:08:47.907Z,13.38
2018-02-24T10:09:50.791Z,9.98
2018-02-24T10:10:53.321Z,10.63
2018-02-24T10:11:57.418Z,11.95
2018-02-24T10:13:00.146Z,11.98
2018-02-24T10:14:02.646Z,10.93
2018-02-24T10:15:05.209Z,11.88
2018-02-24T10:16:09.503Z,11.05
2018-02-24T10:17:15.742Z,14.50
2018-02-24T10:18:18.487Z,13.00
2018-02-24T10:19:20.999Z,11.23
2018-02-24T10:20:23.508Z,46.55
2018-02-24T10:21:26.033Z,34.65
2018-02-24T10:22:28.568Z,13.62
2018-02-24T10:23:31.107Z,14.45
2018-02-24T10:24:33.650Z,11.30
2018-02-24T10:25:36.985Z,10.07
2018-02-24T10:26:39.502Z,8.57
2018-02-24T10:27:42.789Z,10.20
2018-02-24T10:28:46.205Z,9.45
2018-02-24T10:29:48.788Z,10.40
2018-02-24T10:30:51.290Z,10.05
2018-02-24T10:31:53.819Z,12.95
2018-02-24T10:32:56.320Z,11.50
2018-02-24T10:33:58.911Z,11.57
2018-02-24T10:35:02.428Z,12.65
2018-02-24T10:36:04.928Z,13.35
2018-02-24T10:37:07.460Z,13.80
2018-02-24T10:38:09.980Z,15.35
2018-02-24T10:39:13.346Z,19.85
2018-02-24T10:40:15.861Z,15.27
2018-02-24T10:41:18.374Z,30.08
2018-02-24T10:42:20.870Z,14.85
2018-02-24T10:43:24.137Z,17.00
2018-02-24T10:44:26.671Z,12.43
2018-02-24T10:45:29.321Z,11.38
2018-02-24T10:46:31.856Z,11.85
2018-02-24T10:47:35.278Z,9.35
2018-02-24T10:48:37.780Z,9.65
2018-02-24T10:49:41.094Z,8.98
2018-02-24T10:50:44.685Z,11.52
2018-02-24T10:51:48.478Z,8.68
2018-02-24T10:52:51.763Z,10.52
2018-02-24T10:53:55.064Z,10.90
2018-02-24T10:54:57.594Z,12.63
2018-02-24T10:56:00.118Z,10.02
2018-02-24T10:57:02.636Z,8.77
2018-02-24T10:58:05.916Z,10.15
2018-02-24T10:59:09.204Z,13.18
2018-02-24T11:00:12.492Z,10.00
2018-02-24T11:01:15.768Z,10.93
2018-02-24T11:02:19.043Z,10.98
2018-02-24T11:03:22.326Z,7.57
2018-02-24T11:04:24.830Z,9.55
2018-02-24T11:05:27.387Z,9.60
2018-02-24T11:06:29.931Z,9.43
2018-02-24T11:07:33.199Z,7.45
2018-02-24T11:08:35.705Z,8.38
2018-02-24T11:09:38.206Z,11.10
2018-02-24T11:10:40.807Z,12.73
2018-02-24T11:11:43.359Z,11.40
2018-02-24T11:12:45.863Z,7.30
2018-02-24T11:13:48.371Z,11.55
2018-02-24T11:14:50.939Z,9.00
2018-02-24T11:15:53.617Z,10.80
2018-02-24T11:16:56.159Z,8.63
2018-02-24T11:17:58.672Z,15.32
2018-02-24T11:19:01.182Z,8.93
2018-02-24T11:20:03.682Z,8.95
2018-02-24T11:21:06.218Z,12.05
2018-02-24T11:22:08.715Z,10.52
2018-02-24T11:23:11.214Z,9.30
2018-02-24T11:24:15.492Z,9.43
2018-02-24T11:25:18.008Z,8.88
2018-02-24T11:26:20.530Z,10.10
2018-02-24T11:27:23.041Z,12.88
2018-02-24T11:28:25.539Z,6.90
2018-02-24T11:29:28.046Z,7.50
2018-02-24T11:30:38.629Z,10.75
2018-02-24T11:31:46.646Z,10.45
2018-02-24T11:32:49.526Z,12.43
2018-02-24T11:33:52.027Z,10.75
2018-02-24T11:34:55.377Z,8.60
2018-02-24T11:35:58.090Z,7.57
2018-02-24T11:37:01.404Z,8.05
2018-02-24T11:38:05.340Z,10.23
2018-02-24T11:39:07.962Z,13.13
2018-02-24T11:40:10.476Z,7.40
2018-02-24T11:41:13.050Z,11.43
2018-02-24T11:42:15.570Z,8.10
2018-02-24T11:43:18.071Z,7.57
2018-02-24T11:44:20.688Z,15.70
2018-02-24T11:45:23.196Z,8.65
2018-02-24T11:46:26.503Z,9.02
2018-02-24T11:47:29.047Z,8.40
2018-02-24T11:48:31.546Z,11.18
2018-02-24T11:49:34.826Z,7.37
2018-02-24T11:50:38.116Z,8.75
2018-02-24T11:51:41.389Z,13.27
2018-02-24T11:52:44.686Z,9.88
2018-02-24T11:53:47.966Z,9.40
2018-02-24T11:54:51.260Z,11.05
2018-02-24T11:55:53.766Z,14.40
2018-02-24T11:56:56.272Z,13.57
2018-02-24T11:57:59.558Z,13.73
2018-02-24T11:59:02.826Z,9.30
2018-02-24T12:00:06.131Z,11.25
2018-02-24T12:01:09.415Z,10.35
2018-02-24T12:02:12.695Z,9.65
2018-02-24T12:03:16.055Z,10.70
2018-02-24T12:04:18.596Z,11.40
2018-02-24T12:05:21.112Z,8.73
2018-02-24T12:06:24.373Z,8.93
2018-02-24T12:07:26.914Z,10.52
2018-02-24T12:08:29.438Z,9.82
2018-02-24T12:09:31.951Z,8.95
2018-02-24T12:10:34.453Z,11.23
2018-02-24T12:11:37.774Z,8.68
2018-02-24T12:12:40.290Z,10.73
2018-02-24T12:13:42.891Z,9.32
2018-02-24T12:14:45.411Z,10.30
2018-02-24T12:15:47.915Z,9.50
2018-02-24T12:16:50.420Z,9.95
2018-02-24T12:17:52.935Z,9.40
2018-02-24T12:18:56.225Z,8.57
2018-02-24T12:19:59.487Z,8.90
2018-02-24T12:21:02.004Z,10.13
2018-02-24T12:22:04.557Z,11.48
2018-02-24T12:23:07.056Z,9.73
2018-02-24T12:24:09.575Z,7.82
2018-02-24T12:25:12.097Z,8.68
2018-02-24T12:26:14.657Z,11.05
2018-02-24T12:27:17.146Z,12.65
2018-02-24T12:28:19.648Z,8.55
2018-02-24T12:29:22.215Z,10.25
2018-02-24T12:30:24.746Z,8.35
2018-02-24T12:31:28.852Z,7.70
2018-02-24T12:32:31.351Z,10.13
2018-02-24T12:33:33.866Z,12.32
2018-02-24T12:34:36.438Z,7.45
2018-02-24T12:35:38.943Z,9.00
2018-02-24T12:36:41.441Z,7.68
2018-02-24T12:37:43.963Z,10.27
2018-02-24T12:38:46.490Z,9.95
2018-02-24T12:39:49.022Z,7.20
2018-02-24T12:40:51.550Z,6.95
2018-02-24T12:41:54.814Z,6.70
2018-02-24T12:42:57.316Z,8.32
2018-02-24T12:43:59.824Z,6.32
2018-02-24T12:45:02.377Z,9.88
2018-02-24T12:46:04.910Z,6.78
2018-02-24T12:47:07.423Z,10.20
2018-02-24T12:48:09.939Z,8.40
2018-02-24T12:49:12.446Z,9.00
2018-02-24T12:50:15.027Z,7.03
2018-02-24T12:51:17.612Z,7.40
2018-02-24T12:52:20.879Z,8.30
2018-02-24T12:53:23.404Z,6.65
2018-02-24T12:54:25.909Z,7.20
2018-02-24T12:55:28.486Z,7.40
2018-02-24T12:56:30.979Z,6.70
2018-02-24T12:57:34.262Z,7.35
2018-02-24T12:58:37.526Z,7.20
2018-02-24T12:59:40.798Z,7.97
2018-02-24T13:00:43.343Z,7.82
2018-02-24T13:01:45.839Z,8.55
2018-02-24T13:02:49.114Z,7.68
2018-02-24T13:03:51.609Z,9.55
2018-02-24T13:04:54.863Z,8.30
2018-02-24T13:05:57.402Z,7.22
2018-02-24T13:06:59.896Z,8.55
2018-02-24T13:08:03.185Z,9.45
2018-02-24T13:09:05.703Z,15.20
2018-02-24T13:10:08.212Z,12.93
2018-02-24T13:11:10.778Z,21.17
2018-02-24T13:12:13.310Z,26.45
2018-02-24T13:13:15.811Z,23.50
2018-02-24T13:14:18.341Z,17.17
2018-02-24T13:15:20.897Z,21.87
2018-02-24T13:16:23.422Z,10.25
2018-02-24T13:17:25.940Z,9.25
2018-02-24T13:18:28.451Z,7.90
2018-02-24T13:19:31.714Z,9.02
2018-02-24T13:20:34.214Z,9.52
2018-02-24T13:21:36.727Z,7.07
2018-02-24T13:22:39.231Z,7.87
2018-02-24T13:23:42.502Z,8.32
2018-02-24T13:24:45.115Z,8.75
2018-02-24T13:25:47.614Z,8.95
2018-02-24T13:26:50.127Z,8.55
2018-02-24T13:27:52.622Z,8.55
2018-02-24T13:28:56.253Z,10.25
2018-02-24T13:29:58.795Z,7.47
2018-02-24T13:31:01.320Z,7.78
2018-02-24T13:32:03.855Z,9.13